Time;durP1;ratioP1;P1;durP2;ratioP2;P2;SDS_P1;SDS_P2;PMS_P1;PMS_P2;Temp;Humidity;BMP_temperature;BMP_pressure;BME280_temperature;BME280_humidity;BME280_pressure;Samples;Min_cycle;Max_cycle;Signal;HPM_P1;HPM_P2
2022/10/09 00:00:14;;;;;;;2.30;2.10;;;12.70;99.90;;;;;;5051998;28;20220;-77
2022/10/09 00:02:49;;;;;;;4.63;2.85;;;12.70;99.90;;;;;;5052661;28;20233;-77
2022/10/09 00:05:45;;;;;;;4.50;2.08;;;12.60;99.90;;;;;;5043407;28;20235;-77
2022/10/09 00:08:13;;;;;;;4.60;2.33;;;12.60;99.90;;;;;;5054652;28;20229;-76
2022/10/09 00:10:45;;;;;;;6.65;2.45;;;12.60;99.90;;;;;;5056122;28;20301;-77
2022/10/09 00:13:27;;;;;;;3.25;2.28;;;12.60;99.90;;;;;;5036210;28;20224;-76
2022/10/09 00:15:55;;;;;;;2.92;2.33;;;12.50;99.90;;;;;;5054601;28;20236;-78
2022/10/09 00:18:24;;;;;;;3.97;2.20;;;12.60;99.90;;;;;;5053337;28;20367;-76
2022/10/09 00:20:53;;;;;;;2.72;2.53;;;12.50;99.90;;;;;;5053975;28;20225;-76
2022/10/09 00:23:26;;;;;;;5.05;2.47;;;12.60;99.90;;;;;;5053839;28;20228;-76
2022/10/09 00:25:58;;;;;;;2.55;2.05;;;12.50;99.90;;;;;;5052462;28;20346;-77
2022/10/09 00:28:27;;;;;;;7.45;2.80;;;12.50;99.90;;;;;;5053310;28;21143;-77
2022/10/09 00:30:58;;;;;;;4.43;2.08;;;12.50;99.90;;;;;;5054058;28;20228;-77
2022/10/09 00:33:25;;;;;;;10.07;2.20;;;12.50;99.90;;;;;;5053482;28;20320;-77
2022/10/09 00:35:56;;;;;;;2.85;1.70;;;12.50;99.90;;;;;;5054530;28;20224;-76
2022/10/09 00:38:23;;;;;;;3.47;3.17;;;12.50;99.90;;;;;;5043696;28;20729;-76
2022/10/09 00:41:08;;;;;;;2.42;1.92;;;12.50;99.90;;;;;;5054134;28;20228;-77
2022/10/09 00:43:44;;;;;;;3.08;2.35;;;12.40;99.90;;;;;;5052663;28;20224;-76
2022/10/09 00:46:27;;;;;;;4.57;2.65;;;12.40;99.90;;;;;;5053466;28;20229;-77
2022/10/09 00:49:05;;;;;;;6.07;2.28;;;12.40;99.90;;;;;;5053291;28;20297;-77
2022/10/09 00:51:35;;;;;;;3.78;2.90;;;12.40;99.90;;;;;;5052939;28;20776;-77
2022/10/09 00:54:04;;;;;;;4.30;1.83;;;12.40;99.90;;;;;;5051669;28;20251;-77
2022/10/09 00:56:31;;;;;;;4.07;2.83;;;12.30;99.90;;;;;;5053791;28;20228;-76
2022/10/09 00:58:59;;;;;;;2.72;1.80;;;12.40;99.90;;;;;;5059182;28;20224;-77
2022/10/09 01:01:28;;;;;;;3.85;1.67;;;12.30;99.90;;;;;;5052707;28;20734;-76
2022/10/09 01:04:02;;;;;;;5.68;2.17;;;12.30;99.90;;;;;;5053979;28;20226;-78
2022/10/09 01:06:46;;;;;;;4.75;2.65;;;12.30;99.90;;;;;;5053309;28;20569;-77
2022/10/09 01:09:20;;;;;;;3.85;2.35;;;12.30;99.90;;;;;;5053265;28;20513;-77
2022/10/09 01:11:54;;;;;;;3.08;2.25;;;12.30;99.90;;;;;;5042366;28;20239;-76
2022/10/09 01:14:26;;;;;;;5.63;2.38;;;12.30;99.90;;;;;;5052593;28;20293;-77
2022/10/09 01:17:02;;;;;;;4.60;2.70;;;12.30;99.90;;;;;;5053786;28;20227;-76
2022/10/09 01:19:44;;;;;;;6.63;2.03;;;12.20;99.90;;;;;;5042290;28;20303;-77
2022/10/09 01:22:27;;;;;;;3.90;2.20;;;12.20;99.90;;;;;;5050699;28;20232;-77
2022/10/09 01:24:59;;;;;;;3.05;1.95;;;12.20;99.90;;;;;;5053863;28;20228;-77
2022/10/09 01:27:29;;;;;;;4.00;2.10;;;12.20;99.90;;;;;;5044550;28;20221;-77
2022/10/09 01:30:01;;;;;;;6.65;2.55;;;12.20;99.90;;;;;;5054215;28;20240;-78
2022/10/09 01:32:33;;;;;;;2.17;1.98;;;12.20;99.90;;;;;;5052935;28;20224;-77
2022/10/09 01:35:02;;;;;;;4.28;2.28;;;12.20;99.90;;;;;;5053351;28;20221;-77
2022/10/09 01:37:31;;;;;;;5.07;2.38;;;12.20;99.90;;;;;;5052684;28;20667;-78
2022/10/09 01:39:59;;;;;;;3.25;2.30;;;12.20;99.90;;;;;;5053392;28;20235;-77
2022/10/09 01:42:32;;;;;;;3.13;1.70;;;12.10;99.90;;;;;;5053774;28;20239;-78
2022/10/09 01:44:59;;;;;;;3.35;2.13;;;12.10;99.90;;;;;;5054707;28;20307;-78
2022/10/09 01:47:27;;;;;;;2.30;2.10;;;12.10;99.90;;;;;;5053622;28;20229;-78
2022/10/09 01:50:01;;;;;;;4.63;2.65;;;12.10;99.90;;;;;;5056095;28;20225;-78
2022/10/09 01:52:38;;;;;;;5.38;3.22;;;12.10;99.90;;;;;;5062199;28;20219;-78
2022/10/09 01:55:17;;;;;;;3.78;2.65;;;12.10;99.90;;;;;;5060032;28;20225;-77
2022/10/09 01:57:51;;;;;;;3.28;1.98;;;12.10;99.90;;;;;;5072355;28;20201;-77
2022/10/09 02:00:19;;;;;;;4.50;2.33;;;12.10;99.90;;;;;;5073631;28;20224;-77
2022/10/09 02:02:48;;;;;;;5.65;2.45;;;12.10;99.90;;;;;;5073279;28;20236;-77
2022/10/09 02:05:22;;;;;;;4.70;2.17;;;12.10;99.90;;;;;;5069412;28;21793;-78
2022/10/09 02:07:51;;;;;;;6.05;2.60;;;12.00;99.90;;;;;;5067051;28;20229;-77
2022/10/09 02:10:20;;;;;;;7.22;2.60;;;12.00;99.90;;;;;;5068772;28;20253;-78
2022/10/09 02:12:51;;;;;;;6.40;2.40;;;12.00;99.90;;;;;;5069415;28;20239;-77
2022/10/09 02:15:24;;;;;;;6.60;2.30;;;12.00;99.90;;;;;;5070980;28;20221;-78
2022/10/09 02:17:54;;;;;;;4.28;2.47;;;12.00;99.90;;;;;;5065532;28;20293;-77
2022/10/09 02:20:27;;;;;;;7.50;2.70;;;12.00;99.90;;;;;;5067566;28;20224;-78
2022/10/09 02:22:56;;;;;;;3.70;2.92;;;12.00;99.90;;;;;;5065763;28;20228;-78
2022/10/09 02:25:24;;;;;;;4.35;2.35;;;12.00;99.90;;;;;;5063047;28;20220;-78
2022/10/09 02:27:57;;;;;;;3.58;2.53;;;12.00;99.90;;;;;;5057529;28;20572;-78
2022/10/09 02:30:38;;;;;;;3.53;2.30;;;12.00;99.90;;;;;;5056721;28;20213;-78
2022/10/09 02:33:17;;;;;;;6.30;2.33;;;12.00;99.90;;;;;;5056302;28;20311;-76
2022/10/09 02:35:51;;;;;;;3.47;2.05;;;12.00;99.90;;;;;;5057022;28;20278;-78
2022/10/09 02:38:18;;;;;;;5.40;1.92;;;11.90;99.90;;;;;;5056410;28;20366;-78
2022/10/09 02:40:45;;;;;;;5.18;2.42;;;12.00;99.90;;;;;;5056439;28;20307;-77
2022/10/09 02:43:13;;;;;;;5.78;2.97;;;12.00;99.90;;;;;;5055733;28;20372;-77
2022/10/09 02:45:40;;;;;;;4.00;2.10;;;12.00;99.90;;;;;;5055965;28;20307;-77
2022/10/09 02:48:12;;;;;;;3.25;1.88;;;12.00;99.90;;;;;;5046589;28;20248;-77
2022/10/09 02:50:40;;;;;;;3.08;2.58;;;12.00;99.90;;;;;;5070476;28;20228;-78
2022/10/09 02:53:08;;;;;;;6.85;3.08;;;12.00;99.90;;;;;;5054143;28;20232;-76
2022/10/09 02:55:36;;;;;;;3.97;2.88;;;12.00;99.90;;;;;;5063604;28;20224;-78
2022/10/09 02:58:05;;;;;;;3.35;2.10;;;12.00;99.90;;;;;;5056174;28;20225;-77
2022/10/09 03:00:33;;;;;;;4.20;2.70;;;12.00;99.90;;;;;;5044763;28;20224;-78
2022/10/09 03:03:00;;;;;;;5.78;2.70;;;12.00;99.90;;;;;;5055472;28;20311;-78
2022/10/09 03:05:34;;;;;;;4.38;2.72;;;12.00;99.90;;;;;;5055139;28;20228;-78
2022/10/09 03:08:03;;;;;;;4.32;2.47;;;12.00;99.90;;;;;;5055759;28;20216;-76
2022/10/09 03:10:33;;;;;;;4.80;2.35;;;12.00;99.90;;;;;;5055396;28;20224;-78
2022/10/09 03:13:00;;;;;;;4.13;2.40;;;12.00;99.90;;;;;;5055882;28;20232;-78
2022/10/09 03:15:28;;;;;;;2.63;2.13;;;12.00;99.90;;;;;;5057442;28;20263;-78
2022/10/09 03:17:58;;;;;;;4.25;2.28;;;12.00;99.90;;;;;;5055453;28;20217;-78
2022/10/09 03:20:29;;;;;;;3.22;2.30;;;12.00;99.90;;;;;;5054845;28;20288;-78
2022/10/09 03:22:57;;;;;;;3.95;1.85;;;12.00;99.90;;;;;;5055517;28;20249;-76
2022/10/09 03:25:25;;;;;;;3.15;1.92;;;12.00;99.90;;;;;;5054333;28;20286;-77
2022/10/09 03:27:53;;;;;;;3.22;2.20;;;12.00;99.90;;;;;;5055441;28;20220;-78
2022/10/09 03:30:22;;;;;;;3.80;2.20;;;12.00;99.90;;;;;;5054787;28;20569;-78
2022/10/09 03:35:49;;;;;;;5.10;2.60;;;12.00;99.90;;;;;;5045576;28;20221;-78
2022/10/09 03:38:23;;;;;;;2.78;2.25;;;11.90;99.90;;;;;;5047339;28;20225;-77
2022/10/09 03:40:50;;;;;;;3.00;2.30;;;11.90;99.90;;;;;;5046167;28;20219;-77
2022/10/09 03:43:17;;;;;;;5.65;2.70;;;11.90;99.90;;;;;;5046873;28;20294;-76
2022/10/09 03:45:44;;;;;;;4.20;2.60;;;11.90;99.90;;;;;;5045809;28;20248;-78
2022/10/09 03:48:13;;;;;;;5.25;2.55;;;11.90;99.90;;;;;;5037811;28;20218;-78
2022/10/09 03:50:41;;;;;;;8.05;3.00;;;11.90;99.90;;;;;;5051004;28;20229;-76
2022/10/09 03:53:12;;;;;;;5.15;2.72;;;11.90;99.90;;;;;;5048766;28;20225;-77
2022/10/09 03:55:39;;;;;;;3.35;2.10;;;11.90;99.90;;;;;;5045957;28;20248;-77
2022/10/09 03:58:06;;;;;;;4.97;2.05;;;11.90;99.90;;;;;;5046519;28;20303;-77
2022/10/09 04:00:34;;;;;;;4.05;2.60;;;11.90;99.90;;;;;;5045818;28;20624;-78
2022/10/09 04:03:01;;;;;;;3.20;2.38;;;11.80;99.90;;;;;;5050077;28;20629;-77
2022/10/09 04:05:35;;;;;;;6.68;2.72;;;11.80;99.90;;;;;;5051126;28;20275;-77
2022/10/09 04:08:02;;;;;;;4.57;2.72;;;11.80;99.90;;;;;;5046006;28;20225;-78
2022/10/09 04:10:30;;;;;;;4.80;2.58;;;11.80;99.90;;;;;;5046684;28;20310;-78
2022/10/09 04:12:57;;;;;;;2.92;2.60;;;11.80;99.90;;;;;;5050238;28;20561;-78
2022/10/09 04:15:27;;;;;;;4.13;2.10;;;11.80;99.90;;;;;;5048988;28;20316;-78
2022/10/09 04:17:55;;;;;;;4.63;2.63;;;11.80;99.90;;;;;;5045599;28;20750;-78
2022/10/09 04:20:22;;;;;;;3.65;2.70;;;11.70;99.90;;;;;;5046116;28;20308;-78
2022/10/09 04:22:49;;;;;;;2.97;2.25;;;11.70;99.90;;;;;;5044927;28;20225;-78
2022/10/09 04:25:17;;;;;;;3.28;2.28;;;11.70;99.90;;;;;;5049065;28;20227;-78
2022/10/09 04:27:45;;;;;;;5.75;2.47;;;11.70;99.90;;;;;;5050093;28;20225;-78
2022/10/09 04:30:13;;;;;;;7.00;2.78;;;11.60;99.90;;;;;;5046777;28;20220;-78
2022/10/09 04:32:40;;;;;;;3.67;2.13;;;11.60;99.90;;;;;;5037110;28;20578;-77
2022/10/09 04:35:08;;;;;;;2.95;2.50;;;11.60;99.90;;;;;;5045416;28;20674;-77
2022/10/09 04:37:35;;;;;;;5.30;2.40;;;11.60;99.90;;;;;;5046504;28;20261;-76
2022/10/09 04:40:07;;;;;;;3.22;2.65;;;11.60;99.90;;;;;;5050011;28;20228;-77
2022/10/09 04:42:35;;;;;;;5.28;2.35;;;11.60;99.90;;;;;;5048640;28;20314;-77
2022/10/09 04:45:11;;;;;;;5.30;2.38;;;11.60;99.90;;;;;;5042988;28;20293;-77
2022/10/09 04:47:39;;;;;;;8.80;3.08;;;11.50;99.90;;;;;;5057927;28;20301;-78
2022/10/09 04:50:07;;;;;;;4.72;2.60;;;11.60;99.90;;;;;;5053084;28;20256;-77
2022/10/09 04:52:34;;;;;;;4.65;2.70;;;11.50;99.90;;;;;;5054161;28;20256;-78
2022/10/09 04:55:01;;;;;;;7.63;3.15;;;11.60;99.90;;;;;;5053469;28;20570;-78
2022/10/09 04:57:28;;;;;;;7.40;2.80;;;11.50;99.90;;;;;;5053956;28;20752;-78
2022/10/09 04:59:55;;;;;;;5.32;2.58;;;11.50;99.90;;;;;;5053623;28;20224;-76
2022/10/09 05:02:24;;;;;;;3.78;2.05;;;11.50;99.90;;;;;;5053495;28;20225;-76
2022/10/09 05:04:51;;;;;;;6.88;2.72;;;11.60;99.90;;;;;;5053532;28;20235;-77
2022/10/09 05:07:22;;;;;;;9.43;3.03;;;11.50;99.90;;;;;;5053882;28;20221;-77
2022/10/09 05:09:49;;;;;;;4.18;2.83;;;11.50;99.90;;;;;;5053426;28;20254;-76
2022/10/09 05:12:16;;;;;;;7.15;2.70;;;11.50;99.90;;;;;;5044420;28;20670;-77
2022/10/09 05:14:46;;;;;;;3.15;2.20;;;11.50;99.90;;;;;;5056959;28;20256;-76
2022/10/09 05:17:13;;;;;;;8.05;2.63;;;11.50;99.90;;;;;;5053212;28;20244;-76
2022/10/09 05:19:41;;;;;;;4.95;2.60;;;11.50;99.90;;;;;;5053804;28;20217;-77
2022/10/09 05:22:09;;;;;;;5.28;2.60;;;11.50;99.90;;;;;;5044008;28;20225;-77
2022/10/09 05:24:36;;;;;;;2.30;2.10;;;11.50;99.90;;;;;;5044707;28;20554;-76
2022/10/09 05:27:03;;;;;;;5.70;2.35;;;11.50;99.90;;;;;;5051480;28;20220;-77
2022/10/09 05:29:33;;;;;;;5.80;2.60;;;11.50;99.90;;;;;;5055747;28;20220;-76
2022/10/09 05:32:01;;;;;;;8.38;3.65;;;11.50;99.90;;;;;;5052975;28;20252;-78
2022/10/09 05:34:32;;;;;;;4.95;2.63;;;11.50;99.90;;;;;;5051691;28;20229;-76
2022/10/09 05:37:11;;;;;;;5.20;2.53;;;11.50;99.90;;;;;;5051166;28;20240;-77
2022/10/09 05:39:40;;;;;;;5.47;2.70;;;11.50;99.90;;;;;;5053075;28;20224;-77
2022/10/09 05:42:07;;;;;;;5.18;2.35;;;11.50;99.90;;;;;;5053144;28;20233;-77
2022/10/09 05:44:34;;;;;;;3.22;2.47;;;11.50;99.90;;;;;;5052483;28;20575;-77
2022/10/09 05:47:12;;;;;;;4.07;2.33;;;11.50;99.90;;;;;;5052597;28;20229;-76
2022/10/09 05:49:39;;;;;;;4.53;2.30;;;11.50;99.90;;;;;;5052488;28;20557;-77
2022/10/09 05:52:10;;;;;;;5.95;2.50;;;11.50;99.90;;;;;;5052749;28;20213;-77
2022/10/09 05:54:37;;;;;;;3.35;2.60;;;11.40;99.90;;;;;;5043255;28;20228;-76
2022/10/09 05:57:07;;;;;;;3.08;2.60;;;11.50;99.90;;;;;;5053104;28;20220;-77
2022/10/09 05:59:34;;;;;;;4.43;2.28;;;11.50;99.90;;;;;;5055871;28;20240;-77
2022/10/09 06:02:02;;;;;;;4.38;3.33;;;11.50;99.90;;;;;;5056873;28;20228;-76
2022/10/09 06:04:30;;;;;;;5.60;2.60;;;11.50;99.90;;;;;;5056725;28;20228;-77
2022/10/09 06:06:57;;;;;;;4.18;3.10;;;11.50;99.90;;;;;;5057559;28;20303;-76
2022/10/09 06:09:27;;;;;;;4.63;2.65;;;11.50;99.90;;;;;;5055898;28;20236;-77
2022/10/09 06:11:56;;;;;;;3.65;2.60;;;11.50;99.90;;;;;;5056769;28;20224;-76
2022/10/09 06:14:24;;;;;;;4.82;3.22;;;11.50;99.90;;;;;;5056486;28;20307;-77
2022/10/09 06:16:52;;;;;;;7.53;2.67;;;11.50;99.90;;;;;;5056434;28;20224;-77
2022/10/09 06:19:20;;;;;;;4.22;3.03;;;11.50;99.90;;;;;;5056936;28;20620;-77
2022/10/09 06:21:49;;;;;;;4.95;2.63;;;11.50;99.90;;;;;;5056244;28;20235;-77
2022/10/09 06:24:21;;;;;;;5.38;2.88;;;11.50;99.90;;;;;;5056250;28;20216;-77
2022/10/09 06:26:51;;;;;;;6.82;3.28;;;11.50;99.90;;;;;;5055874;28;20224;-77
2022/10/09 06:29:20;;;;;;;3.53;3.13;;;11.50;99.90;;;;;;5057313;28;20220;-77
2022/10/09 06:31:51;;;;;;;6.93;2.92;;;11.50;99.90;;;;;;5056672;28;20255;-77
2022/10/09 06:34:18;;;;;;;5.72;2.35;;;11.60;99.90;;;;;;5057654;28;20250;-76
2022/10/09 06:39:30;;;;;;;6.25;2.85;;;11.60;99.90;;;;;;5060750;28;20228;-77
2022/10/09 06:41:58;;;;;;;5.68;2.85;;;11.60;99.90;;;;;;5050478;28;20308;-76
2022/10/09 06:44:25;;;;;;;5.03;3.05;;;11.60;99.90;;;;;;5058369;28;20259;-76
2022/10/09 06:46:52;;;;;;;5.65;2.95;;;11.70;99.90;;;;;;5055358;28;20282;-77
2022/10/09 06:49:26;;;;;;;5.07;3.10;;;11.70;99.90;;;;;;5058958;28;20260;-77
2022/10/09 06:51:53;;;;;;;7.07;3.85;;;11.70;99.90;;;;;;5060258;28;20220;-77
2022/10/09 06:54:20;;;;;;;3.42;2.60;;;11.70;99.90;;;;;;5058302;28;20225;-77
2022/10/09 06:56:47;;;;;;;3.78;2.33;;;11.80;99.90;;;;;;5058351;28;20225;-76
2022/10/09 06:59:16;;;;;;;3.88;3.20;;;11.80;99.90;;;;;;5058361;28;20237;-76
2022/10/09 07:01:43;;;;;;;5.50;3.50;;;11.90;99.90;;;;;;5059098;28;20260;-76
2022/10/09 07:04:17;;;;;;;6.53;3.00;;;11.90;99.90;;;;;;5060637;28;20232;-75
2022/10/09 07:06:46;;;;;;;7.47;3.75;;;11.90;99.90;;;;;;5057931;28;20225;-75
2022/10/09 07:09:15;;;;;;;5.47;3.95;;;12.00;99.90;;;;;;5055098;28;20221;-76
2022/10/09 07:11:44;;;;;;;4.97;3.33;;;12.10;99.90;;;;;;5056674;28;20301;-77
2022/10/09 07:14:14;;;;;;;4.63;3.20;;;12.10;99.90;;;;;;5059423;28;20242;-76
2022/10/09 07:16:44;;;;;;;12.32;4.32;;;12.10;99.90;;;;;;5063384;28;20251;-78
2022/10/09 07:19:13;;;;;;;4.88;3.03;;;12.20;99.90;;;;;;5062547;28;20550;-78
2022/10/09 07:21:42;;;;;;;7.40;4.60;;;12.20;99.90;;;;;;5060957;28;20233;-77
2022/10/09 07:24:10;;;;;;;4.18;3.05;;;12.30;99.90;;;;;;5070223;28;20215;-77
2022/10/09 07:26:39;;;;;;;5.63;3.55;;;12.30;99.90;;;;;;5068272;28;20228;-76
2022/10/09 07:29:08;;;;;;;6.38;3.25;;;12.40;99.90;;;;;;5066868;28;20674;-76
2022/10/09 07:31:37;;;;;;;3.58;2.75;;;12.40;99.90;;;;;;5064029;28;20220;-78
2022/10/09 07:34:06;;;;;;;5.85;2.65;;;12.50;99.90;;;;;;5071082;28;20264;-78
2022/10/09 07:36:42;;;;;;;3.65;2.80;;;12.50;99.90;;;;;;5068152;28;20280;-76
2022/10/09 07:39:09;;;;;;;8.20;2.83;;;12.60;99.90;;;;;;5055665;28;20258;-78
2022/10/09 07:41:37;;;;;;;3.67;2.80;;;12.60;99.90;;;;;;5057835;28;20243;-76
2022/10/09 07:44:04;;;;;;;6.30;2.53;;;12.60;99.90;;;;;;5056139;28;20276;-76
2022/10/09 07:46:31;;;;;;;9.20;3.30;;;12.70;99.90;;;;;;5047479;28;20251;-78
2022/10/09 07:49:13;;;;;;;4.57;2.40;;;12.70;99.90;;;;;;5058345;28;20289;-78
2022/10/09 07:51:44;;;;;;;4.50;2.50;;;12.80;99.90;;;;;;5053457;28;20233;-76
2022/10/09 07:54:11;;;;;;;6.43;2.88;;;12.80;99.90;;;;;;5051471;28;20286;-78
2022/10/09 07:56:40;;;;;;;7.18;2.88;;;12.90;99.90;;;;;;5051650;28;20253;-77
2022/10/09 07:59:12;;;;;;;4.40;3.25;;;12.90;99.90;;;;;;5052093;28;20221;-77
2022/10/09 08:01:41;;;;;;;3.25;2.60;;;12.90;99.90;;;;;;5050701;28;20578;-76
2022/10/09 08:04:10;;;;;;;4.30;2.60;;;13.00;99.90;;;;;;5035829;28;20229;-78
2022/10/09 08:06:37;;;;;;;5.10;3.17;;;13.00;99.90;;;;;;5045790;28;20225;-77
2022/10/09 08:09:08;;;;;;;5.35;3.55;;;13.00;99.90;;;;;;5055287;28;20675;-76
2022/10/09 08:11:39;;;;;;;6.55;2.70;;;13.10;99.90;;;;;;5052457;28;20225;-76
2022/10/09 08:14:06;;;;;;;5.40;2.05;;;13.10;99.90;;;;;;5049803;28;20559;-75
2022/10/09 08:16:35;;;;;;;2.95;2.30;;;13.20;99.90;;;;;;5048758;28;20315;-77
2022/10/09 08:19:04;;;;;;;6.13;3.88;;;13.20;99.90;;;;;;5047817;28;20249;-76
2022/10/09 08:21:36;;;;;;;2.95;2.75;;;13.30;99.90;;;;;;5050808;28;20225;-77
2022/10/09 08:24:15;;;;;;;3.67;2.70;;;13.30;99.90;;;;;;5053764;28;20232;-77
2022/10/09 08:26:43;;;;;;;5.00;3.42;;;13.30;99.90;;;;;;5046548;28;20259;-76
2022/10/09 08:29:19;;;;;;;4.10;2.80;;;13.40;99.90;;;;;;5048007;28;20279;-77
2022/10/09 08:32:28;;;;;;;4.45;2.65;;;13.40;99.90;;;;;;5030139;28;20232;-76
2022/10/09 08:42:10;;;;;;;3.05;2.60;;;13.60;99.90;;;;;;4922028;28;20364;-77
2022/10/09 08:48:15;;;;;;;7.25;3.30;;;13.70;99.90;;;;;;4859364;29;20486;-78
2022/10/09 08:50:52;;;;;;;4.80;3.20;;;13.70;99.90;;;;;;4907586;28;20235;-77
2022/10/09 08:53:44;;;;;;;3.40;3.00;;;13.80;99.90;;;;;;4979765;28;20736;-77
2022/10/09 08:56:15;;;;;;;4.77;2.73;;;13.90;99.90;;;;;;5030763;28;20544;-77
2022/10/09 08:58:47;;;;;;;4.40;2.85;;;13.90;99.90;;;;;;5048031;28;20464;-76
2022/10/09 09:01:33;;;;;;;3.08;2.35;;;14.00;99.90;;;;;;5034782;28;20220;-76
2022/10/09 09:04:25;;;;;;;3.50;2.55;;;14.00;99.90;;;;;;5060565;28;20262;-77
2022/10/09 09:07:01;;;;;;;3.10;2.33;;;14.10;99.90;;;;;;5049972;28;20218;-78
2022/10/09 09:09:48;;;;;;;3.40;2.80;;;14.10;99.90;;;;;;5029457;28;20531;-76
2022/10/09 09:12:41;;;;;;;6.00;3.00;;;14.20;99.90;;;;;;5040938;28;20467;-76
2022/10/09 09:15:32;;;;;;;6.80;2.70;;;14.30;99.90;;;;;;5033785;28;20472;-78
2022/10/09 09:18:17;;;;;;;4.33;2.90;;;14.40;99.90;;;;;;5034305;28;20480;-77
2022/10/09 09:20:56;;;;;;;4.30;2.10;;;14.40;99.90;;;;;;5039011;28;20972;-77
2022/10/09 09:23:29;;;;;;;6.20;2.50;;;14.50;99.90;;;;;;5038398;28;20467;-76
2022/10/09 09:25:58;;;;;;;3.10;2.40;;;14.50;99.90;;;;;;5037322;28;20537;-76
2022/10/09 09:28:28;;;;;;;4.37;2.50;;;14.60;99.90;;;;;;5040487;28;20452;-76
2022/10/09 09:30:59;;;;;;;3.10;2.70;;;14.60;99.90;;;;;;5037137;28;20472;-76
2022/10/09 09:33:35;;;;;;;7.30;3.60;;;14.70;99.90;;;;;;5035177;28;20467;-76
2022/10/09 09:36:09;;;;;;;9.07;4.43;;;14.70;99.90;;;;;;5036287;28;20479;-77
2022/10/09 09:38:40;;;;;;;7.00;3.67;;;14.70;99.90;;;;;;5033088;28;20451;-78
2022/10/09 09:41:07;;;;;;;3.50;2.53;;;14.80;99.90;;;;;;5033098;28;20559;-76
2022/10/09 09:43:35;;;;;;;3.10;2.80;;;14.80;99.90;;;;;;5034031;28;20467;-75
2022/10/09 09:46:03;;;;;;;2.33;2.13;;;14.90;99.90;;;;;;5040009;28;20475;-76
2022/10/09 09:48:47;;;;;;;4.00;2.17;;;14.90;99.90;;;;;;5044285;28;20475;-75
2022/10/09 09:51:18;;;;;;;4.17;2.30;;;15.00;99.90;;;;;;5042722;28;20802;-77
2022/10/09 09:53:59;;;;;;;2.50;2.00;;;15.00;99.90;;;;;;5052719;28;20908;-76
2022/10/09 09:56:49;;;;;;;2.30;1.70;;;15.10;99.90;;;;;;5055097;28;20550;-77
2022/10/09 09:59:33;;;;;;;3.30;2.00;;;15.20;99.90;;;;;;5054161;28;20824;-77
2022/10/09 10:02:02;;;;;;;5.13;1.93;;;15.20;99.90;;;;;;5054382;28;20466;-76
2022/10/09 10:04:30;;;;;;;2.93;1.90;;;15.20;99.90;;;;;;5052880;28;21016;-76
2022/10/09 10:07:01;;;;;;;5.00;2.03;;;15.20;99.90;;;;;;5053902;28;20471;-76
2022/10/09 10:09:30;;;;;;;3.90;2.20;;;15.30;99.90;;;;;;5052338;28;20466;-76
2022/10/09 10:12:00;;;;;;;4.27;1.90;;;15.40;99.90;;;;;;5052635;28;20548;-77
2022/10/09 10:14:27;;;;;;;4.23;2.17;;;15.40;99.90;;;;;;5052354;28;20459;-75
2022/10/09 10:16:57;;;;;;;3.40;2.00;;;15.40;99.90;;;;;;5043070;28;20463;-76
2022/10/09 10:19:28;;;;;;;2.63;1.70;;;15.40;99.90;;;;;;5052925;28;20471;-77
2022/10/09 10:21:59;;;;;;;4.97;2.63;;;15.50;99.90;;;;;;5053996;28;20479;-76
2022/10/09 10:24:31;;;;;;;2.27;1.43;;;15.50;99.90;;;;;;5052465;28;20467;-75
2022/10/09 10:27:02;;;;;;;3.47;1.77;;;15.60;99.90;;;;;;5053210;28;20463;-77
2022/10/09 10:29:34;;;;;;;4.00;1.57;;;15.60;99.90;;;;;;5052544;28;21027;-77
2022/10/09 10:32:20;;;;;;;4.53;1.40;;;15.60;99.90;;;;;;5054807;28;20478;-77
2022/10/09 10:34:51;;;;;;;4.10;2.50;;;15.60;99.90;;;;;;5054703;28;20485;-77
2022/10/09 10:37:31;;;;;;;5.03;2.03;;;15.70;99.90;;;;;;5053263;28;20913;-75
2022/10/09 10:40:01;;;;;;;3.00;1.77;;;15.70;99.90;;;;;;5051342;28;20455;-78
2022/10/09 10:42:42;;;;;;;4.10;2.20;;;15.80;99.90;;;;;;5054934;28;20509;-77
2022/10/09 10:45:14;;;;;;;4.47;1.90;;;15.90;99.90;;;;;;5055460;28;20960;-79
2022/10/09 10:47:47;;;;;;;8.47;2.33;;;15.90;99.90;;;;;;5057308;28;20466;-76
2022/10/09 10:50:29;;;;;;;4.20;1.50;;;16.00;99.90;;;;;;5040657;28;20570;-76
2022/10/09 10:53:04;;;;;;;4.10;2.00;;;16.00;99.90;;;;;;5067938;28;20467;-77
2022/10/09 10:55:43;;;;;;;5.03;2.63;;;16.10;99.90;;;;;;5055132;28;20502;-76
2022/10/09 10:58:23;;;;;;;3.10;2.80;;;16.10;99.90;;;;;;5056691;28;20477;-77
2022/10/09 11:01:05;;;;;;;4.50;2.70;;;16.20;99.90;;;;;;5057720;28;20566;-78
2022/10/09 11:03:50;;;;;;;4.23;2.77;;;16.30;99.90;;;;;;5057097;28;20839;-78
2022/10/09 11:06:24;;;;;;;4.93;2.90;;;16.30;99.90;;;;;;5056486;28;20524;-78
2022/10/09 11:09:05;;;;;;;3.80;2.30;;;16.30;99.90;;;;;;5057137;28;20469;-77
2022/10/09 11:11:40;;;;;;;4.10;2.40;;;16.40;99.90;;;;;;5056042;28;21016;-77
2022/10/09 11:14:21;;;;;;;4.10;2.43;;;16.40;99.90;;;;;;5060068;28;20852;-76
2022/10/09 11:17:02;;;;;;;3.00;2.00;;;16.50;99.90;;;;;;5039565;28;20471;-77
2022/10/09 11:19:52;;;;;;;3.00;2.17;;;16.50;99.90;;;;;;5029105;28;20475;-77
2022/10/09 11:22:32;;;;;;;3.00;2.33;;;16.60;99.90;;;;;;5038360;28;20487;-77
2022/10/09 11:25:28;;;;;;;4.03;1.90;;;16.70;99.90;;;;;;5051749;28;20523;-77
2022/10/09 11:28:02;;;;;;;4.30;1.93;;;16.70;99.90;;;;;;5054939;28;20551;-76
2022/10/09 11:30:42;;;;;;;3.30;1.70;;;16.80;99.90;;;;;;5063243;28;20460;-77
2022/10/09 11:33:32;;;;;;;2.70;1.53;;;16.80;99.90;;;;;;5054983;28;20483;-77
2022/10/09 11:36:04;;;;;;;2.60;1.60;;;16.90;99.90;;;;;;5056855;28;20517;-76
2022/10/09 11:38:39;;;;;;;8.47;1.70;;;16.90;99.90;;;;;;5056526;28;20494;-77
2022/10/09 11:41:08;;;;;;;4.10;1.43;;;16.90;99.90;;;;;;5062932;28;20504;-77
2022/10/09 11:43:55;;;;;;;3.93;1.80;;;16.90;99.90;;;;;;5050762;28;20470;-77
2022/10/09 11:46:41;;;;;;;5.10;1.70;;;17.00;99.90;;;;;;5068579;28;20474;-77
2022/10/09 11:49:18;;;;;;;2.47;1.20;;;17.00;99.90;;;;;;5059157;28;20481;-76
2022/10/09 11:51:51;;;;;;;5.03;2.03;;;17.00;99.90;;;;;;5055998;28;20555;-76
2022/10/09 11:54:27;;;;;;;3.63;1.67;;;17.00;99.90;;;;;;5056511;28;20477;-77
2022/10/09 11:56:58;;;;;;;5.00;1.80;;;17.00;99.90;;;;;;5045061;28;20463;-76
2022/10/09 11:59:36;;;;;;;2.90;1.70;;;17.00;99.90;;;;;;5056967;28;20493;-76
2022/10/09 12:02:25;;;;;;;3.83;1.80;;;16.90;99.80;;;;;;5056067;28;20834;-78
2022/10/09 12:04:53;;;;;;;3.97;2.30;;;16.90;99.90;;;;;;5061015;28;20514;-78
2022/10/09 12:07:43;;;;;;;4.73;2.10;;;16.90;99.90;;;;;;5068977;28;20481;-78
2022/10/09 12:10:32;;;;;;;2.80;1.63;;;16.90;99.90;;;;;;5051036;28;20816;-78
2022/10/09 12:13:04;;;;;;;2.63;2.40;;;16.90;99.90;;;;;;5063090;28;21161;-77
2022/10/09 12:15:40;;;;;;;4.77;2.10;;;16.90;99.90;;;;;;5063999;28;20492;-77
2022/10/09 12:18:23;;;;;;;4.57;2.37;;;16.90;99.90;;;;;;5062496;28;20441;-77
2022/10/09 12:20:51;;;;;;;6.97;4.50;;;16.90;99.90;;;;;;5063388;28;20476;-77
2022/10/09 12:23:26;;;;;;;4.30;3.30;;;16.90;99.90;;;;;;5045838;28;20478;-77
2022/10/09 12:25:54;;;;;;;3.60;2.70;;;16.90;99.90;;;;;;5064632;28;20538;-77
2022/10/09 12:28:39;;;;;;;4.07;2.20;;;17.00;99.90;;;;;;5063554;28;20483;-77
2022/10/09 12:31:21;;;;;;;4.40;1.47;;;17.00;99.90;;;;;;5062763;28;20861;-79
2022/10/09 12:33:56;;;;;;;2.97;1.80;;;17.00;99.90;;;;;;5062905;28;20497;-78
2022/10/09 12:36:25;;;;;;;1.90;1.20;;;17.00;99.30;;;;;;5058680;28;20466;-77
2022/10/09 12:38:53;;;;;;;1.83;1.27;;;17.00;99.30;;;;;;5060502;28;20519;-77
2022/10/09 12:41:24;;;;;;;2.40;1.37;;;17.10;99.60;;;;;;5063110;28;20506;-77
2022/10/09 12:43:54;;;;;;;1.80;1.50;;;17.10;99.90;;;;;;5058762;28;20496;-78
2022/10/09 12:46:37;;;;;;;3.07;1.30;;;17.10;99.90;;;;;;5057783;28;20470;-77
2022/10/09 12:49:18;;;;;;;4.03;1.57;;;17.10;99.90;;;;;;5046577;28;20497;-77
2022/10/09 12:51:52;;;;;;;1.80;1.47;;;17.10;99.90;;;;;;5054943;28;20859;-76
2022/10/09 12:54:26;;;;;;;1.20;1.10;;;17.10;99.70;;;;;;5055357;28;20498;-76
2022/10/09 12:56:58;;;;;;;7.13;1.47;;;17.10;99.80;;;;;;5056438;28;20504;-77
2022/10/09 12:59:29;;;;;;;2.40;1.67;;;17.00;99.70;;;;;;5055198;28;20529;-76
2022/10/09 13:02:00;;;;;;;2.60;1.67;;;17.00;99.40;;;;;;5054426;28;20471;-76
2022/10/09 13:04:31;;;;;;;6.10;1.60;;;17.00;99.20;;;;;;5053933;28;20463;-76
2022/10/09 13:06:59;;;;;;;2.40;1.33;;;17.00;99.10;;;;;;5054433;28;20474;-77
2022/10/09 13:09:35;;;;;;;5.03;1.60;;;17.00;99.10;;;;;;5044205;28;20478;-77
2022/10/09 13:12:07;;;;;;;3.23;1.40;;;17.00;99.10;;;;;;5054610;28;20474;-77
2022/10/09 13:14:48;;;;;;;2.00;1.40;;;17.00;98.80;;;;;;5043181;28;20939;-77
2022/10/09 13:17:32;;;;;;;2.80;1.97;;;17.10;98.90;;;;;;5053261;28;20963;-76
2022/10/09 13:20:03;;;;;;;1.90;1.07;;;17.10;99.30;;;;;;5053741;28;20534;-76
2022/10/09 13:22:34;;;;;;;7.00;1.90;;;17.20;99.50;;;;;;5053103;28;20485;-76
2022/10/09 13:25:02;;;;;;;4.10;1.57;;;17.20;99.40;;;;;;5053857;28;20495;-77
2022/10/09 13:27:33;;;;;;;2.50;1.20;;;17.20;99.30;;;;;;5054506;28;20467;-77
2022/10/09 13:30:02;;;;;;;7.33;1.60;;;17.20;98.90;;;;;;5054617;28;20556;-77